Flag for Sweden

Past Weather in 58°23'59"N, 15°37'00"E, Sweden — Yesterday and Last 2 Weeks

Currently: 70 °F. Sunny. (Weather station: Linkoping / Saab, Sweden). See more current weather

Past Weather in 58°23'59"N, 15°37'00"E — Graph

°F

58°23'59"N, 15°37'00"E Temperature Yesterday

Maximum temperature yesterday: 72 °F (at 2:50 pm)
Minimum temperature yesterday: 52 °F (at 4:50 am)
Average temperature yesterday: 63 °F

High & Low Weather Summary for the Past Weeks

 TemperatureHumidityPressure
High77 °F (Jul 10, 2:50 pm)100% (Jul 6, 11:20 pm)30.21 "Hg (Jul 6, 11:20 pm)
Low48 °F (Jul 5, 4:20 am)43% (Jul 7, 5:20 pm)29.39 "Hg (Jul 7, 2:20 am)
Average62 °F79%29.78 "Hg
* Reported Jul 2 6:20 pm — Jul 17 6:20 pm, 58°23'59"N, 15°37'00"E. Weather by CustomWeather, © 2024

Note: Actual official high and low records may vary slightly from our data, if they occured in-between our weather recording intervals... More about our weather records

58°23'59"N, 15°37'00"E Weather History for the Previous 24 Hours

Scroll right to see more
 ConditionsComfort  
Time TempWeatherWind HumidityBarometerVisibility
6:20 pm
Wed, Jul 17
68 °FPassing clouds.15 mph60%29.86 "HgN/A
5:50 pm68 °FPassing clouds.16 mph64%29.86 "HgN/A
5:20 pm68 °FPassing clouds.15 mph64%29.86 "HgN/A
4:50 pm68 °FScattered clouds.14 mph64%29.86 "HgN/A
4:20 pm68 °FScattered clouds.16 mph69%29.86 "HgN/A
3:50 pm70 °FScattered clouds.18 mph64%29.83 "HgN/A
3:20 pm70 °FScattered clouds.15 mph69%29.83 "HgN/A
2:50 pm68 °FMore clouds than sun.15 mph69%29.83 "HgN/A
2:20 pm68 °FCloudy.14 mph73%29.83 "HgN/A
1:50 pm68 °FMostly cloudy.17 mph73%29.83 "HgN/A
1:20 pm66 °FCloudy.16 mph78%29.83 "HgN/A
12:50 pm66 °FMostly cloudy.14 mph78%29.83 "HgN/A
12:20 pm66 °FOvercast.15 mph78%29.80 "HgN/A
11:50 am64 °FOvercast.14 mph83%29.80 "HgN/A
11:20 am66 °FMostly cloudy.16 mph78%29.80 "HgN/A
10:50 am64 °FMostly cloudy.15 mph88%29.80 "HgN/A
10:20 am64 °FOvercast.12 mph83%29.80 "HgN/A
9:50 am63 °FCloudy.13 mph94%29.77 "HgN/A
9:20 am64 °FMostly cloudy.12 mph88%29.77 "HgN/A
8:50 am64 °FMostly cloudy.12 mph88%29.77 "HgN/A
8:20 am63 °FMostly cloudy.9 mph94%29.77 "HgN/A
7:50 am63 °FDrizzle. Mostly cloudy.7 mph94%29.77 "HgN/A
7:20 am63 °FMore clouds than sun.7 mph100%29.74 "HgN/A
6:50 am63 °FBroken clouds.5 mph100%29.74 "HgN/A
6:20 am61 °FCloudy.3 mph100%29.74 "Hg4 mi
5:50 am61 °FBroken clouds.3 mph100%29.77 "Hg4 mi
5:20 am61 °FDrizzle. More clouds than sun.3 mph100%29.77 "Hg4 mi
4:50 am61 °FLight rain. Partly sunny.5 mph100%29.77 "HgN/A
4:20 am61 °FRain. Cloudy.5 mph100%29.77 "Hg1 mi
3:50 am61 °FRain. Partly cloudy.3 mph100%29.77 "Hg1 mi
3:20 am61 °FRain. Mostly cloudy.5 mph100%29.80 "Hg1 mi
2:50 am61 °FLight rain. Mostly cloudy.5 mph100%29.80 "Hg5 mi
2:20 am61 °FRain. Mostly cloudy.6 mph100%29.80 "Hg2 mi
1:50 am61 °FLight rain. Mostly cloudy.6 mph100%29.83 "HgN/A
1:20 am61 °FLight rain. Mostly cloudy.8 mph100%29.83 "Hg3 mi
12:50 am61 °FLight rain. Mostly cloudy.8 mph100%29.83 "Hg5 mi
12:20 am61 °FRain. Mostly cloudy.6 mph94%29.83 "Hg4 mi
11:20 pm
Tue, Jul 16
59 °FLow clouds.5 mph100%29.83 "Hg6 mi
10:50 pm59 °FPartly cloudy.6 mph100%29.83 "Hg6 mi
10:20 pm59 °FPartly cloudy.7 mph100%29.86 "HgN/A
9:50 pm61 °FRain. Passing clouds.3 mph94%29.86 "Hg2 mi
9:20 pm61 °FRain. Cloudy.3 mph94%29.86 "Hg1 mi
8:50 pm64 °FOvercast.3 mph78%29.86 "HgN/A
8:20 pm64 °FMostly cloudy.5 mph78%29.86 "HgN/A
7:50 pm66 °FOvercast.5 mph78%29.86 "HgN/A
7:20 pm66 °FMostly cloudy.5 mph73%29.86 "HgN/A
Weather by CustomWeather, © 2024

See weather overview